Time;durP1;ratioP1;P1;durP2;ratioP2;P2;SDS_P1;SDS_P2;PMS_P1;PMS_P2;Temp;Humidity;BMP_temperature;BMP_pressure;BME280_temperature;BME280_humidity;BME280_pressure;Samples;Min_cycle;Max_cycle;Signal;HPM_P1;HPM_P2
2021/12/27 00:02:34;;;;;;;8.93;5.55;;;21.60;57.80;;;;;;7872705;28;20679;-61
2021/12/27 00:06:19;;;;;;;7.78;5.15;;;21.60;57.70;;;;;;7872523;28;20174;-61
2021/12/27 00:10:06;;;;;;;8.48;5.65;;;21.60;57.80;;;;;;7871622;28;20243;-62
2021/12/27 00:13:51;;;;;;;8.48;5.25;;;21.60;57.80;;;;;;7872520;28;20173;-62
2021/12/27 00:17:39;;;;;;;8.27;5.53;;;21.50;57.90;;;;;;7871153;28;20174;-62
2021/12/27 00:21:24;;;;;;;8.20;5.20;;;21.50;57.90;;;;;;7872250;28;20189;-62
2021/12/27 00:25:10;;;;;;;7.78;5.00;;;21.50;57.90;;;;;;7872149;28;20235;-62
2021/12/27 00:28:55;;;;;;;7.10;4.63;;;21.50;58.10;;;;;;7871154;28;20182;-62
2021/12/27 00:32:43;;;;;;;9.20;5.25;;;21.50;58.10;;;;;;7871557;28;20558;-62
2021/12/27 00:36:28;;;;;;;9.77;5.40;;;21.50;58.20;;;;;;7871679;28;20176;-62
2021/12/27 00:40:14;;;;;;;7.32;5.10;;;21.50;58.30;;;;;;7870728;28;20189;-62
2021/12/27 00:44:00;;;;;;;7.80;5.40;;;21.50;58.20;;;;;;7871301;28;20169;-61
2021/12/27 00:47:46;;;;;;;7.00;4.95;;;21.50;58.10;;;;;;7870650;28;20185;-60
2021/12/27 00:51:31;;;;;;;6.88;4.88;;;21.50;58.10;;;;;;7870850;28;20235;-62
2021/12/27 00:55:17;;;;;;;8.00;5.00;;;21.40;58.10;;;;;;7870889;28;20177;-61
2021/12/27 00:59:03;;;;;;;9.48;5.20;;;21.40;58.20;;;;;;7870060;28;20174;-62
2021/12/27 01:02:49;;;;;;;7.82;5.35;;;21.40;58.40;;;;;;7870581;28;20759;-61
2021/12/27 01:06:34;;;;;;;8.15;5.05;;;21.40;58.40;;;;;;7870579;28;20698;-60
2021/12/27 01:14:40;;;;;;;7.55;5.35;;;21.40;58.40;;;;;;7870318;28;20177;-61
2021/12/27 01:18:26;;;;;;;8.20;5.05;;;21.40;58.40;;;;;;7869506;28;20568;-62
2021/12/27 01:22:11;;;;;;;6.50;4.38;;;21.30;58.40;;;;;;7870022;28;20251;-62
2021/12/27 01:25:57;;;;;;;7.30;5.10;;;21.30;58.40;;;;;;7869934;28;20307;-61
2021/12/27 01:29:42;;;;;;;7.05;4.88;;;21.30;58.40;;;;;;7869388;28;20178;-61
2021/12/27 01:33:28;;;;;;;8.75;5.05;;;21.30;58.60;;;;;;7870117;28;20275;-61
2021/12/27 01:37:13;;;;;;;9.15;4.82;;;21.30;58.60;;;;;;7869686;28;20192;-62
2021/12/27 01:40:59;;;;;;;8.77;5.40;;;21.30;58.70;;;;;;7867762;28;20669;-61
2021/12/27 01:44:45;;;;;;;7.50;5.03;;;21.30;58.60;;;;;;7869552;28;20177;-62
2021/12/27 01:48:37;;;;;;;7.70;4.80;;;21.30;58.60;;;;;;7868826;28;20723;-62
2021/12/27 01:52:24;;;;;;;7.43;5.03;;;21.30;59.30;;;;;;7869295;28;20308;-62
2021/12/27 01:56:11;;;;;;;7.30;5.03;;;21.30;58.60;;;;;;7869396;28;20177;-61
2021/12/27 01:59:56;;;;;;;6.53;4.68;;;21.20;58.60;;;;;;7868572;28;20173;-61
2021/12/27 02:03:43;;;;;;;8.55;5.35;;;21.20;58.60;;;;;;7869199;28;20180;-62
2021/12/27 02:07:28;;;;;;;8.60;5.03;;;21.20;58.60;;;;;;7868570;28;20177;-62
2021/12/27 02:11:16;;;;;;;8.13;4.80;;;21.20;58.60;;;;;;7868775;28;20717;-62
2021/12/27 02:15:07;;;;;;;8.82;5.18;;;21.20;58.60;;;;;;7869092;28;20181;-62
2021/12/27 02:18:53;;;;;;;8.27;5.18;;;21.20;58.40;;;;;;7868410;28;20179;-62
2021/12/27 02:22:40;;;;;;;6.72;4.95;;;21.20;58.50;;;;;;7868842;28;20201;-62
2021/12/27 02:26:25;;;;;;;7.88;5.13;;;21.20;58.50;;;;;;7868966;28;20201;-61
2021/12/27 02:30:14;;;;;;;7.85;4.82;;;21.20;58.60;;;;;;7867993;28;20201;-62
2021/12/27 02:33:59;;;;;;;7.43;5.05;;;21.10;58.50;;;;;;7868968;28;20326;-62
2021/12/27 02:37:45;;;;;;;7.60;5.20;;;21.10;58.40;;;;;;7868134;28;20181;-61
2021/12/27 02:41:30;;;;;;;8.00;5.00;;;21.10;58.50;;;;;;7870442;28;20205;-62
2021/12/27 02:45:16;;;;;;;9.85;5.38;;;21.10;58.50;;;;;;7874834;28;20370;-62
2021/12/27 02:49:02;;;;;;;8.52;5.35;;;21.10;58.60;;;;;;7874154;28;20182;-61
2021/12/27 02:52:48;;;;;;;8.73;5.32;;;21.10;58.60;;;;;;7874524;28;20221;-60
2021/12/27 02:56:34;;;;;;;8.73;4.53;;;21.10;58.70;;;;;;7875506;28;20658;-60
2021/12/27 03:00:27;;;;;;;8.93;5.53;;;21.00;58.80;;;;;;7873938;28;20197;-60
2021/12/27 03:04:12;;;;;;;8.63;5.00;;;21.00;58.90;;;;;;7874435;28;20172;-61
2021/12/27 03:07:59;;;;;;;8.60;5.40;;;21.00;59.00;;;;;;7873409;28;20181;-60
2021/12/27 03:11:44;;;;;;;7.88;5.25;;;20.90;59.10;;;;;;7873778;28;20217;-61
2021/12/27 03:15:30;;;;;;;8.05;5.15;;;20.90;59.10;;;;;;7873828;28;20180;-60
2021/12/27 03:19:16;;;;;;;7.47;5.20;;;20.90;59.20;;;;;;7873116;28;20200;-61
2021/12/27 03:23:01;;;;;;;7.88;5.10;;;20.90;59.20;;;;;;7873570;28;20239;-61
2021/12/27 03:26:47;;;;;;;8.70;5.57;;;20.90;59.30;;;;;;7873581;28;20641;-61
2021/12/27 03:30:33;;;;;;;6.88;4.95;;;20.90;59.30;;;;;;7872640;28;20248;-60
2021/12/27 03:34:18;;;;;;;7.18;4.90;;;20.90;59.40;;;;;;7873406;28;20256;-61
2021/12/27 03:38:08;;;;;;;6.03;4.15;;;20.90;59.40;;;;;;7872539;28;20204;-62
2021/12/27 03:41:53;;;;;;;8.38;5.30;;;20.90;59.40;;;;;;7873023;28;20192;-61
2021/12/27 03:45:40;;;;;;;7.20;5.20;;;20.80;59.40;;;;;;7872986;28;20177;-62
2021/12/27 03:49:25;;;;;;;7.15;5.10;;;20.90;59.60;;;;;;7872205;28;20180;-61
2021/12/27 03:53:11;;;;;;;7.47;5.22;;;20.80;59.40;;;;;;7871364;28;20690;-61
2021/12/27 03:56:56;;;;;;;9.23;5.25;;;20.90;59.60;;;;;;7872747;28;20177;-60
2021/12/27 04:00:47;;;;;;;7.95;4.97;;;20.90;59.50;;;;;;7871828;28;20751;-61
2021/12/27 04:04:33;;;;;;;8.73;5.10;;;20.90;59.60;;;;;;7872618;28;20181;-61
2021/12/27 04:08:21;;;;;;;8.15;5.18;;;20.90;59.40;;;;;;7871808;28;20768;-61
2021/12/27 04:12:07;;;;;;;7.45;5.38;;;20.90;59.40;;;;;;7872313;28;20235;-61
2021/12/27 04:15:53;;;;;;;7.95;4.80;;;20.90;59.40;;;;;;7872212;28;20174;-61
2021/12/27 04:19:38;;;;;;;7.18;4.80;;;20.90;59.50;;;;;;7871487;28;20185;-61
2021/12/27 04:23:24;;;;;;;6.53;4.82;;;20.90;59.40;;;;;;7872063;28;20205;-60
2021/12/27 04:27:10;;;;;;;7.97;4.90;;;20.90;59.50;;;;;;7872254;28;20650;-61
2021/12/27 04:30:55;;;;;;;7.32;4.93;;;20.90;59.40;;;;;;7871405;28;20205;-62
2021/12/27 04:34:40;;;;;;;8.30;5.07;;;20.90;59.40;;;;;;7872258;28;20252;-62
2021/12/27 04:38:26;;;;;;;7.80;4.90;;;21.00;59.40;;;;;;7867583;28;20216;-61
2021/12/27 04:42:11;;;;;;;5.93;4.60;;;21.00;59.40;;;;;;7870074;28;20197;-61
2021/12/27 04:45:57;;;;;;;7.53;4.90;;;21.00;59.30;;;;;;7871168;28;20189;-61
2021/12/27 04:49:43;;;;;;;6.80;5.00;;;21.00;59.30;;;;;;7870379;28;20330;-61
2021/12/27 04:53:29;;;;;;;11.20;5.13;;;21.00;59.30;;;;;;7870971;28;20216;-60
2021/12/27 04:57:14;;;;;;;9.63;4.97;;;21.00;59.30;;;;;;7870866;28;20235;-61
2021/12/27 05:01:00;;;;;;;12.27;5.03;;;21.00;59.30;;;;;;7869639;28;20287;-61
2021/12/27 05:04:45;;;;;;;8.45;4.88;;;21.00;59.30;;;;;;7870244;28;20651;-61
2021/12/27 05:08:31;;;;;;;6.90;4.55;;;21.00;59.30;;;;;;7868287;28;20180;-61
2021/12/27 05:12:16;;;;;;;6.88;4.47;;;21.00;59.10;;;;;;7869829;28;20217;-61
2021/12/27 05:16:03;;;;;;;6.75;4.60;;;21.00;59.10;;;;;;7870238;28;20173;-61
2021/12/27 05:19:48;;;;;;;7.15;4.88;;;21.00;59.20;;;;;;7861549;28;20260;-61
2021/12/27 05:23:34;;;;;;;7.57;4.97;;;21.00;59.10;;;;;;7868993;28;20220;-60
2021/12/27 05:27:19;;;;;;;10.90;4.68;;;21.00;59.30;;;;;;7869879;28;20247;-61
2021/12/27 05:31:05;;;;;;;8.95;5.55;;;21.00;59.30;;;;;;7860684;28;20586;-61
2021/12/27 05:34:51;;;;;;;12.45;4.70;;;21.00;59.30;;;;;;7838847;28;20178;-61
2021/12/27 05:38:36;;;;;;;16.80;6.05;;;21.00;59.60;;;;;;7848348;28;20190;-61
2021/12/27 05:42:22;;;;;;;13.90;5.88;;;21.00;58.60;;;;;;7836910;28;20206;-61
2021/12/27 05:46:07;;;;;;;14.13;5.75;;;21.00;59.20;;;;;;7838735;28;20182;-61
2021/12/27 05:49:53;;;;;;;14.15;5.97;;;21.00;59.30;;;;;;7837883;28;20182;-61
2021/12/27 05:53:39;;;;;;;15.73;6.07;;;21.00;59.40;;;;;;7844991;28;20212;-61
2021/12/27 05:57:24;;;;;;;22.73;6.75;;;20.90;59.40;;;;;;7900557;28;20207;-61
2021/12/27 06:01:10;;;;;;;16.95;5.93;;;20.90;59.30;;;;;;7883925;28;20235;-61
2021/12/27 06:04:55;;;;;;;22.98;6.40;;;20.90;59.40;;;;;;7885048;28;20177;-60
2021/12/27 06:08:41;;;;;;;14.25;5.80;;;20.90;59.50;;;;;;7888196;28;20177;-61
2021/12/27 06:12:26;;;;;;;13.48;6.40;;;20.90;59.50;;;;;;7900390;28;20213;-61
2021/12/27 06:16:12;;;;;;;16.30;6.13;;;20.90;59.60;;;;;;7896308;28;20176;-61
2021/12/27 06:19:59;;;;;;;17.35;6.10;;;20.90;59.60;;;;;;7899611;28;20176;-61
2021/12/27 06:23:46;;;;;;;16.05;5.47;;;20.90;59.70;;;;;;7900313;28;20173;-61
2021/12/27 06:27:32;;;;;;;24.45;6.10;;;20.90;59.70;;;;;;7899616;28;20251;-58
2021/12/27 06:31:18;;;;;;;19.48;5.97;;;20.90;59.80;;;;;;7900092;28;20216;-61
2021/12/27 06:35:05;;;;;;;31.65;6.15;;;20.90;59.40;;;;;;7900029;28;20226;-61
2021/12/27 06:38:50;;;;;;;21.70;5.97;;;20.90;59.60;;;;;;7899917;28;20173;-61
2021/12/27 06:42:36;;;;;;;24.92;6.32;;;20.90;59.80;;;;;;7899925;28;20711;-61
2021/12/27 06:46:23;;;;;;;29.20;5.97;;;20.80;59.70;;;;;;7881962;28;20204;-61
2021/12/27 06:50:10;;;;;;;22.20;6.10;;;20.90;59.80;;;;;;7867512;28;20227;-61
2021/12/27 06:53:56;;;;;;;20.60;5.97;;;20.80;59.90;;;;;;7868505;28;20177;-61
2021/12/27 06:57:42;;;;;;;26.00;6.28;;;20.80;59.70;;;;;;7867826;28;20173;-61
2021/12/27 07:01:27;;;;;;;13.52;5.40;;;20.80;59.90;;;;;;7868392;28;20201;-61
2021/12/27 07:05:13;;;;;;;16.45;5.57;;;20.80;59.90;;;;;;7868283;28;20239;-60
2021/12/27 07:08:59;;;;;;;13.75;5.80;;;20.80;59.90;;;;;;7864167;28;20217;-61
2021/12/27 07:12:45;;;;;;;15.85;6.28;;;20.80;59.90;;;;;;7867042;28;20351;-61
2021/12/27 07:16:30;;;;;;;14.05;5.50;;;20.90;60.00;;;;;;7867360;28;20219;-61
2021/12/27 07:20:16;;;;;;;14.13;5.80;;;20.90;60.10;;;;;;7866556;28;20177;-61
2021/12/27 07:24:02;;;;;;;10.93;5.35;;;20.80;60.10;;;;;;7866986;28;20192;-61
2021/12/27 07:27:47;;;;;;;14.13;5.40;;;20.90;60.10;;;;;;7868336;28;20178;-61
2021/12/27 07:31:33;;;;;;;13.93;5.53;;;20.90;60.10;;;;;;7872201;28;20300;-61
2021/12/27 07:35:18;;;;;;;10.38;4.95;;;20.80;60.10;;;;;;7872486;28;20626;-61
2021/12/27 07:39:06;;;;;;;15.80;5.80;;;20.80;60.00;;;;;;7871713;28;20180;-61
2021/12/27 07:42:52;;;;;;;8.95;5.47;;;20.80;60.10;;;;;;7872275;28;20212;-61
2021/12/27 07:46:40;;;;;;;9.82;5.13;;;20.90;60.20;;;;;;7872522;28;20260;-61
2021/12/27 07:50:26;;;;;;;11.93;5.07;;;20.80;60.10;;;;;;7871775;28;20274;-61
2021/12/27 07:54:11;;;;;;;11.10;5.10;;;20.90;60.10;;;;;;7872033;28;20174;-61
2021/12/27 07:57:58;;;;;;;11.18;5.55;;;20.90;60.40;;;;;;7871772;28;20656;-61
2021/12/27 08:01:44;;;;;;;12.27;5.07;;;20.90;60.40;;;;;;7872021;28;20284;-60
2021/12/27 08:05:29;;;;;;;14.90;5.32;;;20.90;60.30;;;;;;7871679;28;20223;-61
2021/12/27 08:09:15;;;;;;;18.60;4.78;;;20.90;60.30;;;;;;7872447;28;20196;-61
2021/12/27 08:13:02;;;;;;;15.48;5.28;;;20.90;60.40;;;;;;7871095;28;20220;-61
2021/12/27 08:16:47;;;;;;;13.75;4.82;;;20.90;60.40;;;;;;7871420;28;20161;-61
2021/12/27 08:20:33;;;;;;;13.60;4.65;;;20.90;60.40;;;;;;7870459;28;20209;-61
2021/12/27 08:24:18;;;;;;;10.27;5.20;;;20.90;60.50;;;;;;7880667;28;20279;-61
2021/12/27 08:28:04;;;;;;;13.30;5.15;;;20.90;60.40;;;;;;7901746;28;20191;-61
2021/12/27 08:31:50;;;;;;;10.50;4.68;;;20.80;60.40;;;;;;7901718;28;20208;-61
2021/12/27 08:35:36;;;;;;;12.50;4.85;;;20.90;60.60;;;;;;7902165;28;20173;-62
2021/12/27 08:39:22;;;;;;;16.92;4.82;;;20.90;60.60;;;;;;7900714;28;20173;-61
2021/12/27 08:43:07;;;;;;;14.55;4.70;;;21.00;60.70;;;;;;7895437;28;20705;-61
2021/12/27 08:46:53;;;;;;;10.98;4.85;;;20.90;60.50;;;;;;7899067;28;20213;-61
2021/12/27 08:50:39;;;;;;;15.10;5.32;;;21.00;60.60;;;;;;7890029;28;20231;-61
2021/12/27 08:54:25;;;;;;;18.15;4.65;;;21.00;60.30;;;;;;7870003;28;20192;-61
2021/12/27 08:58:10;;;;;;;9.95;4.78;;;20.90;60.10;;;;;;7868813;28;20264;-61
2021/12/27 09:01:56;;;;;;;9.32;4.55;;;21.00;60.10;;;;;;7869761;28;20291;-61
2021/12/27 09:05:43;;;;;;;11.70;4.35;;;20.90;60.10;;;;;;7870200;28;20765;-61
2021/12/27 09:09:29;;;;;;;7.82;4.38;;;20.90;60.40;;;;;;7868981;28;20599;-61
2021/12/27 09:13:14;;;;;;;8.02;4.57;;;20.90;60.40;;;;;;7882532;28;20353;-61
2021/12/27 09:16:59;;;;;;;9.55;4.53;;;20.90;60.40;;;;;;7901038;28;20619;-61
2021/12/27 09:20:45;;;;;;;7.75;4.47;;;20.90;60.50;;;;;;7900037;28;20207;-61
2021/12/27 09:24:31;;;;;;;9.27;4.68;;;20.90;60.50;;;;;;7900571;28;20665;-61
2021/12/27 09:28:17;;;;;;;9.55;4.25;;;21.00;60.40;;;;;;7900079;28;20169;-61
2021/12/27 09:32:03;;;;;;;11.63;4.32;;;21.00;60.60;;;;;;7900431;28;20209;-61
2021/12/27 09:35:49;;;;;;;8.82;3.80;;;21.00;60.60;;;;;;7900319;28;20180;-61
2021/12/27 09:39:36;;;;;;;6.30;4.32;;;20.90;60.70;;;;;;7899362;28;20255;-60
2021/12/27 09:43:23;;;;;;;8.57;4.85;;;20.90;60.60;;;;;;7900015;28;20704;-61
2021/12/27 09:47:09;;;;;;;7.07;4.13;;;20.90;60.80;;;;;;7900253;28;20191;-61
2021/12/27 09:50:57;;;;;;;7.68;4.45;;;21.00;60.90;;;;;;7898283;28;20217;-61
2021/12/27 09:54:46;;;;;;;9.52;4.47;;;20.90;60.90;;;;;;7900077;28;20179;-61
2021/12/27 09:58:32;;;;;;;8.18;4.30;;;20.90;60.80;;;;;;7899413;28;20175;-61
2021/12/27 10:02:23;;;;;;;10.90;4.00;;;20.90;61.10;;;;;;7900835;28;20192;-61
2021/12/27 10:06:10;;;;;;;12.02;4.63;;;20.90;61.20;;;;;;7901280;28;20188;-61
2021/12/27 10:09:59;;;;;;;10.27;3.88;;;21.00;61.30;;;;;;7899974;28;20181;-61
2021/12/27 10:14:04;;;;;;;8.15;4.03;;;21.00;61.30;;;;;;7900454;28;20224;-60
2021/12/27 10:17:49;;;;;;;16.17;4.82;;;21.00;61.30;;;;;;7897438;28;20164;-61
2021/12/27 10:21:36;;;;;;;12.32;4.60;;;20.90;60.90;;;;;;7868942;28;20200;-61
2021/12/27 10:25:28;;;;;;;10.60;4.10;;;20.90;61.00;;;;;;7869021;28;20170;-61
2021/12/27 10:29:26;;;;;;;12.70;4.82;;;20.90;61.00;;;;;;7868156;28;20785;-62
2021/12/27 10:33:13;;;;;;;11.43;4.63;;;20.90;61.10;;;;;;7868759;28;20201;-61
2021/12/27 10:37:03;;;;;;;9.57;5.07;;;20.90;61.00;;;;;;7867326;28;20211;-61
2021/12/27 10:41:11;;;;;;;12.48;4.72;;;20.90;61.00;;;;;;7866777;28;20193;-61
2021/12/27 10:45:00;;;;;;;10.93;4.50;;;20.90;61.00;;;;;;7868682;28;20200;-61
2021/12/27 10:48:54;;;;;;;7.95;4.38;;;20.90;61.00;;;;;;7867760;28;20268;-61
2021/12/27 10:52:58;;;;;;;17.02;4.85;;;20.90;61.00;;;;;;7868273;28;20267;-61
2021/12/27 10:56:52;;;;;;;15.20;4.45;;;20.90;61.10;;;;;;7869894;28;20264;-61
2021/12/27 11:00:40;;;;;;;8.35;4.80;;;20.80;60.90;;;;;;7866605;28;20197;-61
2021/12/27 11:04:26;;;;;;;15.82;5.10;;;20.80;61.00;;;;;;7871998;28;20185;-61
2021/12/27 11:08:11;;;;;;;9.68;5.07;;;20.80;61.00;;;;;;7884421;28;20637;-60
2021/12/27 11:11:57;;;;;;;8.70;5.18;;;20.80;61.00;;;;;;7878381;28;20221;-62
2021/12/27 11:15:43;;;;;;;9.68;5.15;;;20.90;61.10;;;;;;7874065;28;20173;-61
2021/12/27 11:19:28;;;;;;;8.88;5.55;;;20.90;61.20;;;;;;7894728;28;20251;-61
2021/12/27 11:23:15;;;;;;;9.90;5.90;;;20.90;61.20;;;;;;7904452;28;20739;-61
2021/12/27 11:27:10;;;;;;;11.50;5.40;;;20.90;61.20;;;;;;7905171;28;20185;-61
2021/12/27 11:30:57;;;;;;;9.20;4.88;;;20.90;61.20;;;;;;7902671;28;20215;-61
2021/12/27 11:34:57;;;;;;;11.07;5.20;;;20.80;61.20;;;;;;7904736;28;20252;-61
2021/12/27 11:38:43;;;;;;;9.95;4.90;;;20.80;61.30;;;;;;7904161;28;20180;-61
2021/12/27 11:42:29;;;;;;;12.90;5.13;;;20.90;61.30;;;;;;7904478;28;20283;-62
2021/12/27 11:46:15;;;;;;;7.30;4.60;;;20.80;61.30;;;;;;7904397;28;20192;-61
2021/12/27 11:50:05;;;;;;;8.65;5.05;;;20.90;61.40;;;;;;7903622;28;20184;-61
2021/12/27 11:53:55;;;;;;;11.25;5.03;;;20.80;61.20;;;;;;7904541;28;20208;-61
2021/12/27 11:57:44;;;;;;;6.38;4.30;;;20.80;61.30;;;;;;7903837;28;20165;-61
2021/12/27 12:01:30;;;;;;;7.05;4.55;;;20.80;61.20;;;;;;7903778;28;20239;-61
2021/12/27 12:05:36;;;;;;;9.65;4.70;;;20.90;61.20;;;;;;7903084;28;20180;-61
2021/12/27 12:09:24;;;;;;;9.98;5.00;;;20.90;61.20;;;;;;7903336;28;20284;-61
2021/12/27 12:13:41;;;;;;;10.25;5.13;;;20.90;61.20;;;;;;7902268;28;20208;-61
2021/12/27 12:17:44;;;;;;;9.35;4.80;;;20.90;61.00;;;;;;7890322;28;20180;-61
2021/12/27 12:21:32;;;;;;;9.52;4.28;;;21.00;61.00;;;;;;7903324;28;20200;-61
2021/12/27 12:25:23;;;;;;;7.88;4.88;;;21.00;60.90;;;;;;7903254;28;20176;-61
2021/12/27 12:29:09;;;;;;;9.10;5.03;;;21.00;60.80;;;;;;7902746;28;20165;-61
2021/12/27 12:33:04;;;;;;;8.45;5.07;;;21.10;60.80;;;;;;7884698;28;20262;-61
2021/12/27 12:37:01;;;;;;;7.85;4.85;;;21.10;60.70;;;;;;7902825;28;20178;-62
2021/12/27 12:41:12;;;;;;;7.13;4.63;;;21.20;60.60;;;;;;7900228;28;20679;-61
2021/12/27 12:45:05;;;;;;;8.23;4.65;;;21.20;60.60;;;;;;7901748;28;20181;-61
2021/12/27 12:49:04;;;;;;;9.07;4.65;;;21.20;60.60;;;;;;7901973;28;20169;-61
2021/12/27 12:52:55;;;;;;;9.60;4.97;;;21.20;60.50;;;;;;7902644;28;20216;-61
2021/12/27 12:56:41;;;;;;;6.18;4.10;;;21.30;60.50;;;;;;7885213;28;20177;-62
2021/12/27 13:00:29;;;;;;;6.57;4.63;;;21.30;60.50;;;;;;7901645;28;20200;-61
2021/12/27 13:04:15;;;;;;;8.52;5.10;;;21.30;60.50;;;;;;7902128;28;20222;-61
2021/12/27 13:08:00;;;;;;;8.35;5.18;;;21.40;60.40;;;;;;7901354;28;20173;-61
2021/12/27 13:11:53;;;;;;;8.60;4.70;;;21.40;60.20;;;;;;7902296;28;20257;-61
2021/12/27 13:15:48;;;;;;;8.02;4.80;;;21.40;61.20;;;;;;7902413;28;20173;-61
2021/12/27 13:19:33;;;;;;;8.85;4.88;;;21.40;60.20;;;;;;7901300;28;20263;-61
2021/12/27 13:23:21;;;;;;;8.18;4.78;;;21.40;60.10;;;;;;7900506;28;20196;-61
2021/12/27 13:27:07;;;;;;;9.27;4.60;;;21.40;60.20;;;;;;7901028;28;20655;-61
2021/12/27 13:31:14;;;;;;;6.57;4.35;;;21.40;60.10;;;;;;7900640;28;20251;-61
2021/12/27 13:35:00;;;;;;;6.68;4.00;;;21.40;60.10;;;;;;7900278;28;20173;-61
2021/12/27 13:39:03;;;;;;;6.88;4.22;;;21.40;60.10;;;;;;7899395;28;20202;-61
2021/12/27 13:42:49;;;;;;;7.85;4.93;;;21.40;60.10;;;;;;7901180;28;20202;-61
2021/12/27 13:46:37;;;;;;;9.23;4.38;;;21.40;60.10;;;;;;7901801;28;20181;-61
2021/12/27 13:50:27;;;;;;;11.02;4.50;;;21.40;60.00;;;;;;7900062;28;20628;-61
2021/12/27 13:54:16;;;;;;;11.32;4.22;;;21.40;60.00;;;;;;7901051;28;20173;-61
2021/12/27 13:58:20;;;;;;;6.35;4.35;;;21.40;60.00;;;;;;7882379;28;20168;-60
2021/12/27 14:02:08;;;;;;;7.20;4.05;;;21.40;60.00;;;;;;7882345;28;20222;-61
2021/12/27 14:05:54;;;;;;;9.18;4.95;;;21.40;60.10;;;;;;7900406;28;20272;-61
2021/12/27 14:09:42;;;;;;;10.43;5.13;;;21.40;60.00;;;;;;7899468;28;20259;-61
2021/12/27 14:13:44;;;;;;;8.38;4.57;;;21.50;60.10;;;;;;7900182;28;20328;-61
2021/12/27 14:17:32;;;;;;;6.53;4.45;;;21.40;60.10;;;;;;7899726;28;20207;-61
2021/12/27 14:21:18;;;;;;;5.38;4.18;;;21.50;60.10;;;;;;7899994;28;20188;-61
2021/12/27 14:25:05;;;;;;;10.52;5.00;;;21.50;60.10;;;;;;7900356;28;20247;-61
2021/12/27 14:28:50;;;;;;;8.98;4.50;;;21.50;60.10;;;;;;7899631;28;20236;-61
2021/12/27 14:32:38;;;;;;;10.52;4.72;;;21.50;60.10;;;;;;7899991;28;20208;-61
2021/12/27 14:36:24;;;;;;;13.73;4.35;;;21.50;60.10;;;;;;7899943;28;20551;-62
2021/12/27 14:40:09;;;;;;;17.80;5.43;;;21.50;60.10;;;;;;7905236;28;20321;-60
2021/12/27 14:43:55;;;;;;;13.38;4.80;;;21.50;60.10;;;;;;7900221;28;20239;-62
2021/12/27 14:47:41;;;;;;;14.30;5.18;;;21.60;60.10;;;;;;7873577;28;20182;-62
2021/12/27 14:51:26;;;;;;;25.30;5.60;;;21.60;60.10;;;;;;7873261;28;20243;-61
2021/12/27 14:55:14;;;;;;;11.52;5.93;;;21.60;60.10;;;;;;7877332;28;20209;-61
2021/12/27 14:58:59;;;;;;;15.57;5.20;;;21.60;60.10;;;;;;7873881;28;20177;-60
2021/12/27 15:02:45;;;;;;;10.25;5.28;;;21.60;60.10;;;;;;7874648;28;20201;-62
2021/12/27 15:06:30;;;;;;;10.93;5.22;;;21.60;60.10;;;;;;7874411;28;20184;-62
2021/12/27 15:10:16;;;;;;;13.13;5.53;;;21.60;60.10;;;;;;7873887;28;20269;-61
2021/12/27 15:14:02;;;;;;;11.70;4.80;;;21.60;60.00;;;;;;7874791;28;20205;-61
2021/12/27 15:17:52;;;;;;;13.95;5.65;;;21.60;60.00;;;;;;7873672;28;20199;-60
2021/12/27 15:21:38;;;;;;;12.52;5.22;;;21.60;60.00;;;;;;7874125;28;20197;-61
2021/12/27 15:25:25;;;;;;;11.35;4.90;;;21.60;60.00;;;;;;7873818;28;20193;-61
2021/12/27 15:29:11;;;;;;;8.18;5.25;;;21.60;59.90;;;;;;7872997;28;20177;-60
2021/12/27 15:32:57;;;;;;;12.02;5.00;;;21.60;60.00;;;;;;7873408;28;20215;-61
2021/12/27 15:36:43;;;;;;;16.10;5.28;;;21.70;59.80;;;;;;7873355;28;20639;-60
2021/12/27 15:40:28;;;;;;;11.07;6.32;;;21.70;59.80;;;;;;7872557;28;20212;-61
2021/12/27 15:44:13;;;;;;;12.60;5.03;;;21.70;59.70;;;;;;7873098;28;20177;-61
2021/12/27 15:48:00;;;;;;;15.32;5.78;;;21.70;59.60;;;;;;7872347;28;20260;-62
2021/12/27 15:51:45;;;;;;;12.38;6.80;;;21.80;59.50;;;;;;7873016;28;20706;-61
2021/12/27 15:55:32;;;;;;;19.45;6.75;;;21.90;59.20;;;;;;7872857;28;20529;-61
2021/12/27 15:59:17;;;;;;;26.83;7.60;;;21.90;58.60;;;;;;7898672;28;20185;-61
2021/12/27 16:03:03;;;;;;;40.53;12.07;;;22.00;59.00;;;;;;7904134;28;20229;-61
2021/12/27 16:06:50;;;;;;;49.42;17.70;;;22.10;58.40;;;;;;7904439;28;20176;-61
2021/12/27 16:10:36;;;;;;;63.13;20.58;;;22.20;58.30;;;;;;7902977;28;20232;-60
2021/12/27 16:14:21;;;;;;;47.85;19.52;;;22.30;58.60;;;;;;7903985;28;20180;-60
2021/12/27 16:18:07;;;;;;;51.40;18.50;;;22.40;58.70;;;;;;7902996;28;20211;-60
2021/12/27 16:21:52;;;;;;;44.58;16.30;;;22.60;58.70;;;;;;7903517;28;20299;-61
2021/12/27 16:25:38;;;;;;;38.58;14.35;;;22.70;58.80;;;;;;7903477;28;20886;-57
2021/12/27 16:29:23;;;;;;;34.15;13.60;;;22.80;58.80;;;;;;7896893;28;20211;-61
2021/12/27 16:33:09;;;;;;;36.17;10.52;;;22.90;58.40;;;;;;7903148;28;20212;-61
2021/12/27 16:36:55;;;;;;;24.70;10.65;;;23.00;58.60;;;;;;7865106;28;20185;-60
2021/12/27 16:40:40;;;;;;;28.85;11.15;;;23.20;59.10;;;;;;7861682;28;20208;-61
2021/12/27 16:44:26;;;;;;;26.50;9.52;;;23.30;58.70;;;;;;7864973;28;20192;-61
2021/12/27 16:48:12;;;;;;;26.30;8.75;;;23.30;59.70;;;;;;7870446;28;20583;-61
2021/12/27 16:51:58;;;;;;;23.15;7.80;;;23.40;60.00;;;;;;7871081;28;20213;-61
2021/12/27 16:55:44;;;;;;;24.50;7.53;;;23.40;60.80;;;;;;7870554;28;20181;-61
2021/12/27 16:59:31;;;;;;;16.63;7.07;;;23.40;61.10;;;;;;7869608;28;20265;-61
2021/12/27 17:03:16;;;;;;;20.08;6.55;;;23.40;61.40;;;;;;7863955;28;20674;-61
2021/12/27 17:07:02;;;;;;;17.30;6.32;;;23.50;61.80;;;;;;7843483;28;20562;-61
2021/12/27 17:10:48;;;;;;;17.70;6.93;;;23.50;62.00;;;;;;7856309;28;20217;-62
2021/12/27 17:14:33;;;;;;;21.13;6.97;;;23.50;62.30;;;;;;7870566;28;20195;-62
2021/12/27 17:18:19;;;;;;;21.40;6.50;;;23.50;62.20;;;;;;7861864;28;20268;-61
2021/12/27 17:22:05;;;;;;;18.83;6.93;;;23.40;63.40;;;;;;7839106;28;20237;-60
2021/12/27 17:25:51;;;;;;;19.38;7.28;;;23.40;62.90;;;;;;7847344;28;20185;-61
2021/12/27 17:29:36;;;;;;;17.70;6.47;;;23.50;63.20;;;;;;7869204;28;20299;-62
2021/12/27 17:33:23;;;;;;;19.83;7.18;;;23.50;63.20;;;;;;7866728;28;20220;-62
2021/12/27 17:37:10;;;;;;;27.40;7.20;;;23.60;62.80;;;;;;7838445;28;20220;-62
2021/12/27 17:40:57;;;;;;;28.42;7.05;;;23.60;63.20;;;;;;7838824;28;20205;-62
2021/12/27 17:44:42;;;;;;;33.22;10.07;;;23.70;63.40;;;;;;7868651;28;20315;-62
2021/12/27 17:48:28;;;;;;;27.65;9.35;;;23.50;56.80;;;;;;7864399;28;20181;-61
2021/12/27 17:52:14;;;;;;;20.48;8.18;;;23.40;60.10;;;;;;7862933;28;20209;-62
2021/12/27 17:55:59;;;;;;;23.30;9.10;;;23.40;61.60;;;;;;7868259;28;20170;-61
2021/12/27 17:59:45;;;;;;;25.98;8.20;;;23.40;59.20;;;;;;7884764;28;20169;-62
2021/12/27 18:03:31;;;;;;;25.40;7.57;;;23.40;61.20;;;;;;7887679;28;20220;-60
2021/12/27 18:07:16;;;;;;;17.98;7.75;;;23.40;61.70;;;;;;7837312;28;20177;-61
2021/12/27 18:11:03;;;;;;;16.88;7.15;;;23.50;61.90;;;;;;7836207;28;20730;-61
2021/12/27 18:14:49;;;;;;;22.55;7.40;;;23.70;62.30;;;;;;7836526;28;20178;-61
2021/12/27 18:18:35;;;;;;;16.73;7.72;;;23.80;62.40;;;;;;7864405;28;20178;-60
2021/12/27 18:22:20;;;;;;;17.15;7.43;;;24.00;62.30;;;;;;7867992;28;20208;-60
2021/12/27 18:26:06;;;;;;;13.82;6.47;;;24.10;62.50;;;;;;7858932;28;20186;-61
2021/12/27 18:29:51;;;;;;;14.02;7.22;;;24.30;62.40;;;;;;7836179;28;20257;-60
2021/12/27 18:33:37;;;;;;;16.40;6.45;;;24.40;62.70;;;;;;7836603;28;20223;-61
2021/12/27 18:37:23;;;;;;;13.90;6.45;;;24.50;62.70;;;;;;7836578;28;20265;-61
2021/12/27 18:41:08;;;;;;;12.30;6.35;;;24.60;62.50;;;;;;7835915;28;20563;-61
2021/12/27 18:44:54;;;;;;;14.10;6.40;;;24.60;62.40;;;;;;7836562;28;20189;-62
2021/12/27 18:48:39;;;;;;;10.52;6.43;;;24.70;62.40;;;;;;7857318;28;20185;-62
2021/12/27 18:52:25;;;;;;;15.25;5.90;;;24.70;62.40;;;;;;7867308;28;20209;-60
2021/12/27 18:56:13;;;;;;;20.58;6.40;;;24.70;62.50;;;;;;7867407;28;20181;-62
2021/12/27 18:59:58;;;;;;;15.48;5.88;;;24.70;63.10;;;;;;7866734;28;20177;-62
2021/12/27 19:03:44;;;;;;;18.85;5.78;;;24.80;64.90;;;;;;7867206;28;20181;-62
2021/12/27 19:07:30;;;;;;;15.52;5.80;;;24.70;65.40;;;;;;7867084;28;20279;-62
2021/12/27 19:11:16;;;;;;;13.50;5.72;;;24.70;65.80;;;;;;7862315;28;20201;-62
2021/12/27 19:15:02;;;;;;;16.38;5.93;;;24.70;66.20;;;;;;7867141;28;20177;-62
2021/12/27 19:18:48;;;;;;;16.40;6.00;;;24.60;66.30;;;;;;7841542;28;20273;-61
2021/12/27 19:22:34;;;;;;;10.23;5.35;;;24.60;66.40;;;;;;7836124;28;20566;-62
2021/12/27 19:26:22;;;;;;;13.68;6.57;;;24.50;66.50;;;;;;7841747;28;20613;-62
2021/12/27 19:30:09;;;;;;;12.88;5.80;;;24.40;67.00;;;;;;7840819;28;20177;-61
2021/12/27 19:33:55;;;;;;;15.98;6.05;;;24.30;67.20;;;;;;7841267;28;20213;-62
2021/12/27 19:37:40;;;;;;;14.27;6.03;;;24.30;67.50;;;;;;7840841;28;20175;-62